PWSweather.com
Personal Weather Stations
Station Observations
CALONGE
CalongeES 17251

CalongeES 17251

Lat: 41.85972222, Lon: 3.077777778

Elevation: 16

Station Type: Oregon WMR928N

www.calonge-meteoweb.com

High Low Average
Temperature 63.5°F17.5°C 38.7°F3.7°C 53.9°F12.2°C
Dew Point 32.4°F0.2°C 21.6°F-5.8°C 25.8°F-3.4°C
Winds 14.4 mph 23.2 kmh Calm Calm 5.0 mph SE8.0 kmh SE
Wind Gusts 22.3 mph35.9 kmh -- 10.0 mph16.1 kmh
Humidity 57% 24% 35%
Pressure 30.36 in1028.1 mb 30.30 in1026.1 mb -
Precipitation 0.00 in0.0 mm - -
Hour Temp Dew Point Humidity Winds Wind Gusts Pressure Precip Precip Rate Daily Precip Total
12:00 AM 45.9°F7.7°C 23.5°F-4.7°C 41% 2.9 mph NNW4.7 kmh NNW 4.7 mph7.6 kmh 30.33 in1027.1 mb 0.00 in0.0 mm 0.00 in0.0 mm 0.00 in0.0 mm
12:15 AM 48.4°F9.1°C 23.3°F-4.8°C 37% 4.1 mph NNW6.6 kmh NNW 7.6 mph12.2 kmh 30.33 in1027.1 mb 0.00 in0.0 mm 0.00 in0.0 mm 0.00 in0.0 mm
12:30 AM 49.3°F9.6°C 23.4°F-4.8°C 36% 4.7 mph NW7.6 kmh NW 8.2 mph13.2 kmh 30.33 in1027.1 mb 0.00 in0.0 mm 0.00 in0.0 mm 0.00 in0.0 mm
12:45 AM 49.8°F9.9°C 23.2°F-4.9°C 35% 5.3 mph NW8.5 kmh NW 7.6 mph12.2 kmh 30.33 in1027.1 mb 0.00 in0.0 mm 0.00 in0.0 mm 0.00 in0.0 mm
01:00 AM 50.2°F10.1°C 22.1°F-5.5°C 33% 4.1 mph NW6.6 kmh NW 7.6 mph12.2 kmh 30.33 in1027.1 mb 0.00 in0.0 mm 0.00 in0.0 mm 0.00 in0.0 mm
01:15 AM 50.4°F10.2°C 21.6°F-5.8°C 32% 5.9 mph NW9.5 kmh NW 8.2 mph13.2 kmh 30.33 in1027.1 mb 0.00 in0.0 mm 0.00 in0.0 mm 0.00 in0.0 mm
01:30 AM 50.5°F10.3°C 21.7°F-5.7°C 32% 4.1 mph NW6.6 kmh NW 8.2 mph13.2 kmh 30.33 in1027.1 mb 0.00 in0.0 mm 0.00 in0.0 mm 0.00 in0.0 mm
01:45 AM 50.5°F10.3°C 21.7°F-5.7°C 32% 3.5 mph NW5.6 kmh NW 6.4 mph10.3 kmh 30.33 in1027.1 mb 0.00 in0.0 mm 0.00 in0.0 mm 0.00 in0.0 mm
02:00 AM 50.7°F10.4°C 21.9°F-5.6°C 32% 4.1 mph NW6.6 kmh NW 5.3 mph8.5 kmh 30.33 in1027.1 mb 0.00 in0.0 mm 0.00 in0.0 mm 0.00 in0.0 mm
02:15 AM 51.3°F10.7°C 21.6°F-5.8°C 31% Calm Calm 5.3 mph8.5 kmh 30.33 in1027.1 mb 0.00 in0.0 mm 0.00 in0.0 mm 0.00 in0.0 mm
02:30 AM 50.7°F10.4°C 21.9°F-5.6°C 32% 4.1 mph NW6.6 kmh NW 5.3 mph8.5 kmh 30.33 in1027.1 mb 0.00 in0.0 mm 0.00 in0.0 mm 0.00 in0.0 mm
02:45 AM 51.3°F10.7°C 21.6°F-5.8°C 31% 3.5 mph NNW5.6 kmh NNW 7.0 mph11.3 kmh 30.33 in1027.1 mb 0.00 in0.0 mm 0.00 in0.0 mm 0.00 in0.0 mm
03:00 AM 51.8°F11.0°C 22.1°F-5.5°C 31% 3.5 mph NNE5.6 kmh NNE 7.0 mph11.3 kmh 30.33 in1027.1 mb 0.00 in0.0 mm 0.00 in0.0 mm 0.00 in0.0 mm
03:15 AM 52.3°F11.3°C 21.8°F-5.7°C 30% Calm Calm 7.6 mph12.2 kmh 30.33 in1027.1 mb 0.00 in0.0 mm 0.00 in0.0 mm 0.00 in0.0 mm
03:30 AM 52.7°F11.5°C 22.1°F-5.5°C 30% 2.9 mph NNE4.7 kmh NNE 7.6 mph12.2 kmh 30.33 in1027.1 mb 0.00 in0.0 mm 0.00 in0.0 mm 0.00 in0.0 mm
03:45 AM 51.3°F10.7°C 22.4°F-5.3°C 32% 3.5 mph WNW5.6 kmh WNW 4.7 mph7.6 kmh 30.33 in1027.1 mb 0.00 in0.0 mm 0.00 in0.0 mm 0.00 in0.0 mm
04:00 AM 48.0°F8.9°C 23.6°F-4.7°C 38% 3.5 mph NW5.6 kmh NW 5.3 mph8.5 kmh 30.33 in1027.1 mb 0.00 in0.0 mm 0.00 in0.0 mm 0.00 in0.0 mm
04:30 AM 43.3°F6.3°C 22.9°F-5.1°C 44% 4.7 mph W7.6 kmh W 6.4 mph10.3 kmh 30.33 in1027.1 mb 0.00 in0.0 mm 0.00 in0.0 mm 0.00 in0.0 mm
04:45 AM 42.1°F5.6°C 23.3°F-4.8°C 47% Calm Calm -- 30.33 in1027.1 mb 0.00 in0.0 mm 0.00 in0.0 mm 0.00 in0.0 mm
05:00 AM 41.0°F5.0°C 23.8°F-4.6°C 50% Calm Calm -- 30.33 in1027.1 mb 0.00 in0.0 mm 0.00 in0.0 mm 0.00 in0.0 mm
05:15 AM 40.1°F4.5°C 23.9°F-4.5°C 52% 5.9 mph W9.5 kmh W 6.4 mph10.3 kmh 30.33 in1027.1 mb 0.00 in0.0 mm 0.00 in0.0 mm 0.00 in0.0 mm
05:30 AM 39.6°F4.2°C 23.8°F-4.6°C 53% 4.7 mph W7.6 kmh W 7.0 mph11.3 kmh 30.33 in1027.1 mb 0.00 in0.0 mm 0.00 in0.0 mm 0.00 in0.0 mm
05:45 AM 39.0°F3.9°C 24.2°F-4.3°C 55% 4.1 mph WNW6.6 kmh WNW 5.3 mph8.5 kmh 30.33 in1027.1 mb 0.00 in0.0 mm 0.00 in0.0 mm 0.00 in0.0 mm
06:00 AM 38.7°F3.7°C 24.3°F-4.3°C 56% 2.9 mph WNW4.7 kmh WNW 4.7 mph7.6 kmh 30.33 in1027.1 mb 0.00 in0.0 mm 0.00 in0.0 mm 0.00 in0.0 mm
06:15 AM 39.0°F3.9°C 25.1°F-3.8°C 57% Calm Calm 6.4 mph10.3 kmh 30.33 in1027.1 mb 0.00 in0.0 mm 0.00 in0.0 mm 0.00 in0.0 mm
06:30 AM 39.2°F4.0°C 24.8°F-4.0°C 56% 4.1 mph NW6.6 kmh NW 7.0 mph11.3 kmh 30.33 in1027.1 mb 0.00 in0.0 mm 0.00 in0.0 mm 0.00 in0.0 mm
06:45 AM 42.1°F5.6°C 24.8°F-4.0°C 50% 4.1 mph NW6.6 kmh NW 7.0 mph11.3 kmh 30.33 in1027.1 mb 0.00 in0.0 mm 0.00 in0.0 mm 0.00 in0.0 mm
07:00 AM 44.2°F6.8°C 24.7°F-4.1°C 46% 2.9 mph NW4.7 kmh NW 5.3 mph8.5 kmh 30.33 in1027.1 mb 0.00 in0.0 mm 0.00 in0.0 mm 0.00 in0.0 mm
07:15 AM 46.9°F8.3°C 25.6°F-3.6°C 43% 4.1 mph NE6.6 kmh NE 5.3 mph8.5 kmh 30.33 in1027.1 mb 0.00 in0.0 mm 0.00 in0.0 mm 0.00 in0.0 mm
07:30 AM 49.1°F9.5°C 25.8°F-3.4°C 40% 4.1 mph N6.6 kmh N 10.0 mph16.1 kmh 30.33 in1027.1 mb 0.00 in0.0 mm 0.00 in0.0 mm 0.00 in0.0 mm
07:45 AM 50.5°F10.3°C 25.8°F-3.4°C 38% 5.3 mph N8.5 kmh N 8.2 mph13.2 kmh 30.33 in1027.1 mb 0.00 in0.0 mm 0.00 in0.0 mm 0.00 in0.0 mm
08:00 AM 51.6°F10.9°C 26.2°F-3.2°C 37% 4.1 mph N6.6 kmh N 11.4 mph18.3 kmh 30.33 in1027.1 mb 0.00 in0.0 mm 0.00 in0.0 mm 0.00 in0.0 mm
08:15 AM 52.7°F11.5°C 26.5°F-3.1°C 36% 4.7 mph NE7.6 kmh NE 12.6 mph20.3 kmh 30.33 in1027.1 mb 0.00 in0.0 mm 0.00 in0.0 mm 0.00 in0.0 mm
08:30 AM 54.1°F12.3°C 27.1°F-2.7°C 35% 5.9 mph NE9.5 kmh NE 8.2 mph13.2 kmh 30.33 in1027.1 mb 0.00 in0.0 mm 0.00 in0.0 mm 0.00 in0.0 mm
08:45 AM 55.2°F12.9°C 28.0°F-2.2°C 35% 7.0 mph NE11.3 kmh NE 10.0 mph16.1 kmh 30.36 in1028.1 mb 0.00 in0.0 mm 0.00 in0.0 mm 0.00 in0.0 mm
09:00 AM 56.3°F13.5°C 28.3°F-2.1°C 34% 5.9 mph NE9.5 kmh NE 10.5 mph16.9 kmh 30.36 in1028.1 mb 0.00 in0.0 mm 0.00 in0.0 mm 0.00 in0.0 mm
09:15 AM 57.0°F13.9°C 29.6°F-1.3°C 35% 5.9 mph NE9.5 kmh NE 19.6 mph31.5 kmh 30.36 in1028.1 mb 0.00 in0.0 mm 0.00 in0.0 mm 0.00 in0.0 mm
09:30 AM 57.6°F14.2°C 30.1°F-1.1°C 35% 5.3 mph NNE8.5 kmh NNE 14.4 mph23.2 kmh 30.36 in1028.1 mb 0.00 in0.0 mm 0.00 in0.0 mm 0.00 in0.0 mm
09:45 AM 57.7°F14.3°C 30.2°F-1.0°C 35% 5.3 mph N8.5 kmh N 15.5 mph24.9 kmh 30.36 in1028.1 mb 0.00 in0.0 mm 0.00 in0.0 mm 0.00 in0.0 mm
10:00 AM 58.3°F14.6°C 28.5°F-1.9°C 32% 14.4 mph NNE23.2 kmh NNE 11.4 mph18.3 kmh 30.36 in1028.1 mb 0.00 in0.0 mm 0.00 in0.0 mm 0.00 in0.0 mm
10:15 AM 58.8°F14.9°C 29.0°F-1.7°C 32% 3.5 mph NE5.6 kmh NE 19.6 mph31.5 kmh 30.36 in1028.1 mb 0.00 in0.0 mm 0.00 in0.0 mm 0.00 in0.0 mm
10:30 AM 59.4°F15.2°C 27.9°F-2.3°C 30% 7.0 mph NNE11.3 kmh NNE 10.8 mph17.4 kmh 30.36 in1028.1 mb 0.00 in0.0 mm 0.00 in0.0 mm 0.00 in0.0 mm
10:45 AM 59.5°F15.3°C 26.4°F-3.1°C 28% 7.0 mph NE11.3 kmh NE 22.3 mph35.9 kmh 30.36 in1028.1 mb 0.00 in0.0 mm 0.00 in0.0 mm 0.00 in0.0 mm
11:00 AM 59.9°F15.5°C 28.4°F-2.0°C 30% 8.8 mph NE14.2 kmh NE 14.4 mph23.2 kmh 30.36 in1028.1 mb 0.00 in0.0 mm 0.00 in0.0 mm 0.00 in0.0 mm
11:15 AM 60.3°F15.7°C 28.7°F-1.8°C 30% 10.0 mph NE16.1 kmh NE 14.4 mph23.2 kmh 30.36 in1028.1 mb 0.00 in0.0 mm 0.00 in0.0 mm 0.00 in0.0 mm
11:30 AM 60.6°F15.9°C 27.3°F-2.6°C 28% 7.6 mph NE12.2 kmh NE 20.2 mph32.5 kmh 30.36 in1028.1 mb 0.00 in0.0 mm 0.00 in0.0 mm 0.00 in0.0 mm
11:45 AM 61.2°F16.2°C 26.9°F-2.8°C 27% 5.9 mph ENE9.5 kmh ENE 16.1 mph25.9 kmh 30.36 in1028.1 mb 0.00 in0.0 mm 0.00 in0.0 mm 0.00 in0.0 mm
12:00 PM 61.9°F16.6°C 25.6°F-3.6°C 25% 10.0 mph NE16.1 kmh NE 13.8 mph22.2 kmh 30.36 in1028.1 mb 0.00 in0.0 mm 0.00 in0.0 mm 0.00 in0.0 mm
12:15 PM 62.1°F16.7°C 25.8°F-3.4°C 25% 7.6 mph NE12.2 kmh NE 19.0 mph30.6 kmh 30.36 in1028.1 mb 0.00 in0.0 mm 0.00 in0.0 mm 0.00 in0.0 mm
12:30 PM 62.2°F16.8°C 25.9°F-3.4°C 25% 7.0 mph NE11.3 kmh NE 7.6 mph12.2 kmh 30.36 in1028.1 mb 0.00 in0.0 mm 0.00 in0.0 mm 0.00 in0.0 mm
12:45 PM 62.6°F17.0°C 25.3°F-3.7°C 24% 5.9 mph ENE9.5 kmh ENE 10.5 mph16.9 kmh 30.36 in1028.1 mb 0.00 in0.0 mm 0.00 in0.0 mm 0.00 in0.0 mm
01:00 PM 62.8°F17.1°C 26.4°F-3.1°C 25% 2.9 mph NE4.7 kmh NE 10.5 mph16.9 kmh 30.36 in1028.1 mb 0.00 in0.0 mm 0.00 in0.0 mm 0.00 in0.0 mm
01:15 PM 63.1°F17.3°C 26.7°F-2.9°C 25% 7.0 mph NE11.3 kmh NE 14.4 mph23.2 kmh 30.36 in1028.1 mb 0.00 in0.0 mm 0.00 in0.0 mm 0.00 in0.0 mm
01:30 PM 63.5°F17.5°C 27.0°F-2.8°C 25% 10.0 mph ENE16.1 kmh ENE 13.2 mph21.2 kmh 30.36 in1028.1 mb 0.00 in0.0 mm 0.00 in0.0 mm 0.00 in0.0 mm
01:45 PM 63.0°F17.2°C 26.6°F-3.0°C 25% 6.4 mph NE10.3 kmh NE 13.2 mph21.2 kmh 30.36 in1028.1 mb 0.00 in0.0 mm 0.00 in0.0 mm 0.00 in0.0 mm
02:00 PM 63.0°F17.2°C 27.5°F-2.5°C 26% 9.4 mph ENE15.1 kmh ENE 14.4 mph23.2 kmh 30.33 in1027.1 mb 0.00 in0.0 mm 0.00 in0.0 mm 0.00 in0.0 mm
02:15 PM 63.0°F17.2°C 26.6°F-3.0°C 25% 5.9 mph NE9.5 kmh NE 10.5 mph16.9 kmh 30.33 in1027.1 mb 0.00 in0.0 mm 0.00 in0.0 mm 0.00 in0.0 mm
02:30 PM 63.0°F17.2°C 26.6°F-3.0°C 25% 11.4 mph ENE18.3 kmh ENE 16.1 mph25.9 kmh 30.33 in1027.1 mb 0.00 in0.0 mm 0.00 in0.0 mm 0.00 in0.0 mm
02:45 PM 62.6°F17.0°C 27.2°F-2.7°C 26% 8.8 mph NNE14.2 kmh NNE 14.4 mph23.2 kmh 30.33 in1027.1 mb 0.00 in0.0 mm 0.00 in0.0 mm 0.00 in0.0 mm
03:00 PM 62.8°F17.1°C 26.4°F-3.1°C 25% 7.6 mph NE12.2 kmh NE 14.4 mph23.2 kmh 30.33 in1027.1 mb 0.00 in0.0 mm 0.00 in0.0 mm 0.00 in0.0 mm
03:15 PM 62.8°F17.1°C 26.4°F-3.1°C 25% 8.8 mph NE14.2 kmh NE 13.2 mph21.2 kmh 30.33 in1027.1 mb 0.00 in0.0 mm 0.00 in0.0 mm 0.00 in0.0 mm
03:30 PM 63.0°F17.2°C 25.6°F-3.6°C 24% 9.4 mph NE15.1 kmh NE 13.2 mph21.2 kmh 30.30 in1026.1 mb 0.00 in0.0 mm 0.00 in0.0 mm 0.00 in0.0 mm
03:45 PM 63.0°F17.2°C 25.6°F-3.6°C 24% 8.8 mph NE14.2 kmh NE 13.8 mph22.2 kmh 30.30 in1026.1 mb 0.00 in0.0 mm 0.00 in0.0 mm 0.00 in0.0 mm
04:00 PM 63.3°F17.4°C 25.9°F-3.4°C 24% 8.8 mph NE14.2 kmh NE 13.8 mph22.2 kmh 30.30 in1026.1 mb 0.00 in0.0 mm 0.00 in0.0 mm 0.00 in0.0 mm
04:15 PM 63.0°F17.2°C 25.6°F-3.6°C 24% 7.0 mph ENE11.3 kmh ENE 17.3 mph27.8 kmh 30.30 in1026.1 mb 0.00 in0.0 mm 0.00 in0.0 mm 0.00 in0.0 mm
04:30 PM 62.2°F16.8°C 25.0°F-3.9°C 24% 7.6 mph NE12.2 kmh NE 11.4 mph18.3 kmh 30.30 in1026.1 mb 0.00 in0.0 mm 0.00 in0.0 mm 0.00 in0.0 mm
04:45 PM 61.7°F16.5°C 25.5°F-3.6°C 25% 10.0 mph ENE16.1 kmh ENE 16.7 mph26.9 kmh 30.30 in1026.1 mb 0.00 in0.0 mm 0.00 in0.0 mm 0.00 in0.0 mm
05:00 PM 61.2°F16.2°C 25.0°F-3.9°C 25% 7.0 mph ENE11.3 kmh ENE 11.4 mph18.3 kmh 30.30 in1026.1 mb 0.00 in0.0 mm 0.00 in0.0 mm 0.00 in0.0 mm
05:15 PM 60.8°F16.0°C 24.7°F-4.1°C 25% 8.2 mph NE13.2 kmh NE 10.8 mph17.4 kmh 30.30 in1026.1 mb 0.00 in0.0 mm 0.00 in0.0 mm 0.00 in0.0 mm
05:30 PM 60.6°F15.9°C 25.5°F-3.6°C 26% 8.2 mph ENE13.2 kmh ENE 13.2 mph21.2 kmh 30.30 in1026.1 mb 0.00 in0.0 mm 0.00 in0.0 mm 0.00 in0.0 mm
05:45 PM 60.4°F15.8°C 25.4°F-3.7°C 26% 6.4 mph ENE10.3 kmh ENE 8.2 mph13.2 kmh 30.30 in1026.1 mb 0.00 in0.0 mm 0.00 in0.0 mm 0.00 in0.0 mm
06:00 PM 60.1°F15.6°C 25.0°F-3.9°C 26% 5.9 mph NE9.5 kmh NE 10.8 mph17.4 kmh 30.30 in1026.1 mb 0.00 in0.0 mm 0.00 in0.0 mm 0.00 in0.0 mm
06:15 PM 60.1°F15.6°C 24.1°F-4.4°C 25% 4.7 mph NE7.6 kmh NE 7.6 mph12.2 kmh 30.30 in1026.1 mb 0.00 in0.0 mm 0.00 in0.0 mm 0.00 in0.0 mm
06:30 PM 59.2°F15.1°C 23.3°F-4.8°C 25% 6.4 mph NE10.3 kmh NE 10.8 mph17.4 kmh 30.30 in1026.1 mb 0.00 in0.0 mm 0.00 in0.0 mm 0.00 in0.0 mm
06:45 PM 58.5°F14.7°C 23.7°F-4.6°C 26% 4.7 mph ENE7.6 kmh ENE 9.4 mph15.1 kmh 30.30 in1026.1 mb 0.00 in0.0 mm 0.00 in0.0 mm 0.00 in0.0 mm
07:00 PM 57.2°F14.0°C 25.2°F-3.8°C 29% Calm Calm 7.6 mph12.2 kmh 30.30 in1026.1 mb 0.00 in0.0 mm 0.00 in0.0 mm 0.00 in0.0 mm
07:15 PM 56.1°F13.4°C 27.4°F-2.6°C 33% Calm Calm -- 30.30 in1026.1 mb 0.00 in0.0 mm 0.00 in0.0 mm 0.00 in0.0 mm
07:30 PM 55.9°F13.3°C 27.2°F-2.7°C 33% Calm Calm -- 30.30 in1026.1 mb 0.00 in0.0 mm 0.00 in0.0 mm 0.00 in0.0 mm
07:45 PM 52.9°F11.6°C 27.3°F-2.6°C 37% Calm Calm -- 30.30 in1026.1 mb 0.00 in0.0 mm 0.00 in0.0 mm 0.00 in0.0 mm
08:00 PM 51.3°F10.7°C 26.5°F-3.1°C 38% 5.3 mph W8.5 kmh W 7.0 mph11.3 kmh 30.33 in1027.1 mb 0.00 in0.0 mm 0.00 in0.0 mm 0.00 in0.0 mm
08:15 PM 50.9°F10.5°C 30.8°F-0.7°C 46% 8.2 mph NW13.2 kmh NW 8.2 mph13.2 kmh 30.33 in1027.1 mb 0.00 in0.0 mm 0.00 in0.0 mm 0.00 in0.0 mm
08:30 PM 49.6°F9.8°C 28.0°F-2.2°C 43% 5.9 mph WNW9.5 kmh WNW 8.2 mph13.2 kmh 30.33 in1027.1 mb 0.00 in0.0 mm 0.00 in0.0 mm 0.00 in0.0 mm
08:45 PM 50.4°F10.2°C 32.4°F0.2°C 50% 7.0 mph NW11.3 kmh NW 9.4 mph15.1 kmh 30.33 in1027.1 mb 0.00 in0.0 mm 0.00 in0.0 mm 0.00 in0.0 mm
09:00 PM 49.8°F9.9°C 30.9°F-0.6°C 48% 5.3 mph NW8.5 kmh NW 10.0 mph16.1 kmh 30.33 in1027.1 mb 0.00 in0.0 mm 0.00 in0.0 mm 0.00 in0.0 mm
09:15 PM 47.8°F8.8°C 29.1°F-1.6°C 48% Calm Calm 4.1 mph6.6 kmh 30.33 in1027.1 mb 0.00 in0.0 mm 0.00 in0.0 mm 0.00 in0.0 mm
09:30 PM 46.9°F8.3°C 28.8°F-1.8°C 49% Calm Calm -- 30.33 in1027.1 mb 0.00 in0.0 mm 0.00 in0.0 mm 0.00 in0.0 mm
09:45 PM 46.0°F7.8°C 28.9°F-1.7°C 51% 5.9 mph WNW9.5 kmh WNW 8.2 mph13.2 kmh 30.33 in1027.1 mb 0.00 in0.0 mm 0.00 in0.0 mm 0.00 in0.0 mm
10:00 PM 45.5°F7.5°C 28.4°F-2.0°C 51% 4.7 mph WNW7.6 kmh WNW 6.4 mph10.3 kmh 30.33 in1027.1 mb 0.00 in0.0 mm 0.00 in0.0 mm 0.00 in0.0 mm
10:15 PM 44.4°F6.9°C 28.3°F-2.1°C 53% 5.3 mph W8.5 kmh W 8.2 mph13.2 kmh 30.33 in1027.1 mb 0.00 in0.0 mm 0.00 in0.0 mm 0.00 in0.0 mm
10:30 PM 43.7°F6.5°C 29.0°F-1.7°C 56% 7.6 mph W12.2 kmh W 8.2 mph13.2 kmh 30.36 in1028.1 mb 0.00 in0.0 mm 0.00 in0.0 mm 0.00 in0.0 mm